sensor_id;sensor_type;location;lat;lon;timestamp;noise_LAeq;noise_LA_min;noise_LA_max;noise_LA01;noise_LA95
66589;Laerm;53447;49.272;11.070;2023-02-28T00:01:18;42.37;39.39;44.33;;
66589;Laerm;53447;49.272;11.070;2023-02-28T00:03:44;42.20;39.30;43.67;;
66589;Laerm;53447;49.272;11.070;2023-02-28T00:06:09;41.39;36.71;43.37;;
66589;Laerm;53447;49.272;11.070;2023-02-28T00:08:34;40.45;37.02;43.57;;
66589;Laerm;53447;49.272;11.070;2023-02-28T00:11:03;40.72;37.17;42.89;;
66589;Laerm;53447;49.272;11.070;2023-02-28T00:13:30;41.99;38.08;44.01;;
66589;Laerm;53447;49.272;11.070;2023-02-28T00:16:14;40.37;36.02;42.77;;
66589;Laerm;53447;49.272;11.070;2023-02-28T00:18:40;41.31;36.71;43.70;;
66589;Laerm;53447;49.272;11.070;2023-02-28T00:21:06;42.14;39.21;43.61;;
66589;Laerm;53447;49.272;11.070;2023-02-28T00:23:31;41.74;35.82;43.51;;
66589;Laerm;53447;49.272;11.070;2023-02-28T00:25:56;40.49;36.20;43.37;;
66589;Laerm;53447;49.272;11.070;2023-02-28T00:28:22;41.94;37.58;51.45;;
66589;Laerm;53447;49.272;11.070;2023-02-28T00:30:47;41.04;37.45;44.80;;
66589;Laerm;53447;49.272;11.070;2023-02-28T00:33:13;40.27;36.71;42.69;;
66589;Laerm;53447;49.272;11.070;2023-02-28T00:35:38;40.40;35.62;42.61;;
66589;Laerm;53447;49.272;11.070;2023-02-28T00:38:04;40.79;36.55;43.70;;
66589;Laerm;53447;49.272;11.070;2023-02-28T00:40:29;42.16;39.03;43.73;;
66589;Laerm;53447;49.272;11.070;2023-02-28T00:42:54;42.09;39.21;43.70;;
66589;Laerm;53447;49.272;11.070;2023-02-28T00:45:20;40.65;36.20;43.47;;
66589;Laerm;53447;49.272;11.070;2023-02-28T00:47:45;41.97;36.02;46.68;;
66589;Laerm;53447;49.272;11.070;2023-02-28T00:50:11;47.92;36.55;67.59;;
66589;Laerm;53447;49.272;11.070;2023-02-28T00:52:36;44.10;38.63;62.58;;
66589;Laerm;53447;49.272;11.070;2023-02-28T00:55:02;40.47;36.02;45.41;;
66589;Laerm;53447;49.272;11.070;2023-02-28T00:57:28;41.65;36.37;51.41;;
66589;Laerm;53447;49.272;11.070;2023-02-28T00:59:53;50.62;39.39;66.21;;
66589;Laerm;53447;49.272;11.070;2023-02-28T01:02:19;42.10;38.83;46.92;;
66589;Laerm;53447;49.272;11.070;2023-02-28T01:04:45;41.37;38.08;43.40;;
66589;Laerm;53447;49.272;11.070;2023-02-28T01:07:10;40.61;36.87;43.15;;
66589;Laerm;53447;49.272;11.070;2023-02-28T01:09:36;42.19;37.31;46.53;;
66589;Laerm;53447;49.272;11.070;2023-02-28T01:12:01;40.54;36.87;49.57;;
66589;Laerm;53447;49.272;11.070;2023-02-28T01:14:26;40.41;36.87;50.29;;
66589;Laerm;53447;49.272;11.070;2023-02-28T01:16:51;43.35;38.07;52.78;;
66589;Laerm;53447;49.272;11.070;2023-02-28T01:19:17;42.36;39.39;43.67;;
66589;Laerm;53447;49.272;11.070;2023-02-28T01:21:42;42.20;39.21;43.61;;
66589;Laerm;53447;49.272;11.070;2023-02-28T01:24:07;42.22;39.64;43.54;;
66589;Laerm;53447;49.272;11.070;2023-02-28T01:26:32;40.53;36.55;42.57;;
66589;Laerm;53447;49.272;11.070;2023-02-28T01:28:58;40.98;37.45;44.73;;
66589;Laerm;53447;49.272;11.070;2023-02-28T01:31:23;41.51;35.82;44.41;;
66589;Laerm;53447;49.272;11.070;2023-02-28T01:33:48;41.15;37.58;53.97;;
66589;Laerm;53447;49.272;11.070;2023-02-28T01:36:16;40.57;36.02;60.13;;
66589;Laerm;53447;49.272;11.070;2023-02-28T01:38:43;41.31;36.71;48.53;;
66589;Laerm;53447;49.272;11.070;2023-02-28T01:41:08;44.50;40.25;49.74;;
66589;Laerm;53447;49.272;11.070;2023-02-28T01:46:12;41.35;36.87;43.64;;
66589;Laerm;53447;49.272;11.070;2023-02-28T01:48:45;40.82;36.71;44.68;;
66589;Laerm;53447;49.272;11.070;2023-02-28T01:51:15;40.86;37.31;42.69;;
66589;Laerm;53447;49.272;11.070;2023-02-28T01:53:44;40.64;37.10;42.73;;
66589;Laerm;53447;49.272;11.070;2023-02-28T01:56:11;41.14;37.31;43.42;;
66589;Laerm;53447;49.272;11.070;2023-02-28T01:58:38;41.03;36.55;43.70;;
66589;Laerm;53447;49.272;11.070;2023-02-28T02:01:03;42.11;39.30;43.61;;
66589;Laerm;53447;49.272;11.070;2023-02-28T02:03:29;41.93;36.20;43.47;;
66589;Laerm;53447;49.272;11.070;2023-02-28T02:05:55;40.44;36.71;42.77;;
66589;Laerm;53447;49.272;11.070;2023-02-28T02:08:21;41.10;36.71;43.19;;
66589;Laerm;53447;49.272;11.070;2023-02-28T02:10:58;40.91;37.31;43.26;;
66589;Laerm;53447;49.272;11.070;2023-02-28T02:18:27;42.34;39.12;44.41;;
66589;Laerm;53447;49.272;11.070;2023-02-28T02:28:58;40.43;36.87;43.15;;
66589;Laerm;53447;49.272;11.070;2023-02-28T02:38:55;41.86;36.55;43.73;;
66589;Laerm;53447;49.272;11.070;2023-02-28T02:46:32;40.56;36.38;43.44;;
66589;Laerm;53447;49.272;11.070;2023-02-28T02:49:00;40.98;37.02;43.15;;
66589;Laerm;53447;49.272;11.070;2023-02-28T02:51:27;41.55;37.84;44.63;;
66589;Laerm;53447;49.272;11.070;2023-02-28T02:54:13;40.96;37.31;43.61;;
66589;Laerm;53447;49.272;11.070;2023-02-28T02:56:43;41.15;37.58;45.30;;
66589;Laerm;53447;49.272;11.070;2023-02-28T02:59:11;42.27;38.08;44.60;;
66589;Laerm;53447;49.272;11.070;2023-02-28T03:01:38;41.99;39.30;43.61;;
66589;Laerm;53447;49.272;11.070;2023-02-28T03:04:07;41.44;36.20;43.44;;
66589;Laerm;53447;49.272;11.070;2023-02-28T03:06:33;40.88;37.84;43.19;;
66589;Laerm;53447;49.272;11.070;2023-02-28T03:09:00;40.85;36.87;42.89;;
66589;Laerm;53447;49.272;11.070;2023-02-28T03:11:26;41.03;37.84;43.67;;
66589;Laerm;53447;49.272;11.070;2023-02-28T03:16:40;41.60;37.71;44.33;;
66589;Laerm;53447;49.272;11.070;2023-02-28T03:26:53;41.27;37.45;44.13;;
66589;Laerm;53447;49.272;11.070;2023-02-28T03:29:39;40.93;36.87;55.90;;
66589;Laerm;53447;49.272;11.070;2023-02-28T03:35:04;41.41;37.58;45.52;;
66589;Laerm;53447;49.272;11.070;2023-02-28T03:37:32;41.94;38.31;52.88;;
66589;Laerm;53447;49.272;11.070;2023-02-28T03:40:10;46.13;39.56;64.45;;
66589;Laerm;53447;49.272;11.070;2023-02-28T03:42:38;52.10;39.64;72.69;;
66589;Laerm;53447;49.272;11.070;2023-02-28T03:45:05;41.36;37.02;43.86;;
66589;Laerm;53447;49.272;11.070;2023-02-28T03:53:06;41.63;38.93;43.98;;
66589;Laerm;53447;49.272;11.070;2023-02-28T03:55:44;42.22;38.83;47.93;;
66589;Laerm;53447;49.272;11.070;2023-02-28T04:00:37;42.29;39.39;43.98;;
66589;Laerm;53447;49.272;11.070;2023-02-28T04:03:03;52.67;38.63;72.63;;
66589;Laerm;53447;49.272;11.070;2023-02-28T04:05:29;44.49;38.49;60.33;;
66589;Laerm;53447;49.272;11.070;2023-02-28T04:07:54;42.88;39.30;51.24;;
66589;Laerm;53447;49.272;11.070;2023-02-28T04:10:28;41.83;39.21;46.79;;
66589;Laerm;53447;49.272;11.070;2023-02-28T04:12:53;41.83;38.31;46.27;;
66589;Laerm;53447;49.272;11.070;2023-02-28T04:15:18;42.69;40.46;58.22;;
66589;Laerm;53447;49.272;11.070;2023-02-28T04:17:47;42.80;40.59;48.75;;
66589;Laerm;53447;49.272;11.070;2023-02-28T04:20:12;42.54;40.18;56.41;;
66589;Laerm;53447;49.272;11.070;2023-02-28T04:22:38;42.68;40.66;45.23;;
66589;Laerm;53447;49.272;11.070;2023-02-28T04:25:09;42.66;39.56;44.30;;
66589;Laerm;53447;49.272;11.070;2023-02-28T04:27:34;44.26;41.09;52.05;;
66589;Laerm;53447;49.272;11.070;2023-02-28T04:30:00;43.81;41.59;50.70;;
66589;Laerm;53447;49.272;11.070;2023-02-28T04:32:25;43.09;40.59;50.49;;
66589;Laerm;53447;49.272;11.070;2023-02-28T04:34:50;45.03;40.59;55.95;;
66589;Laerm;53447;49.272;11.070;2023-02-28T04:37:15;42.71;40.46;46.91;;
66589;Laerm;53447;49.272;11.070;2023-02-28T04:39:41;42.58;40.03;45.60;;
66589;Laerm;53447;49.272;11.070;2023-02-28T04:42:07;42.42;39.88;44.33;;
66589;Laerm;53447;49.272;11.070;2023-02-28T04:44:32;42.55;39.96;46.43;;
66589;Laerm;53447;49.272;11.070;2023-02-28T04:46:58;42.83;40.39;47.46;;
66589;Laerm;53447;49.272;11.070;2023-02-28T04:49:24;42.58;40.46;44.07;;
66589;Laerm;53447;49.272;11.070;2023-02-28T04:51:49;43.31;40.91;45.92;;
66589;Laerm;53447;49.272;11.070;2023-02-28T04:54:15;43.60;41.59;49.93;;
66589;Laerm;53447;49.272;11.070;2023-02-28T04:56:41;52.92;40.91;72.93;;
66589;Laerm;53447;49.272;11.070;2023-02-28T04:59:06;53.20;40.66;72.31;;
66589;Laerm;53447;49.272;11.070;2023-02-28T05:01:33;44.67;41.89;54.77;;
66589;Laerm;53447;49.272;11.070;2023-02-28T05:04:00;43.38;40.66;51.65;;
66589;Laerm;53447;49.272;11.070;2023-02-28T05:06:26;42.78;40.72;49.12;;
66589;Laerm;53447;49.272;11.070;2023-02-28T05:08:52;42.13;38.93;43.95;;
66589;Laerm;53447;49.272;11.070;2023-02-28T05:11:22;42.71;39.56;58.33;;
66589;Laerm;53447;49.272;11.070;2023-02-28T05:13:48;43.05;40.46;49.58;;
66589;Laerm;53447;49.272;11.070;2023-02-28T05:16:14;42.98;41.32;49.81;;
66589;Laerm;53447;49.272;11.070;2023-02-28T05:18:40;51.13;41.69;69.89;;
66589;Laerm;53447;49.272;11.070;2023-02-28T05:21:05;43.27;40.85;53.47;;
66589;Laerm;53447;49.272;11.070;2023-02-28T05:23:32;43.28;40.18;53.39;;
66589;Laerm;53447;49.272;11.070;2023-02-28T05:25:57;44.76;41.15;59.78;;
66589;Laerm;53447;49.272;11.070;2023-02-28T05:28:22;43.11;40.59;48.27;;
66589;Laerm;53447;49.272;11.070;2023-02-28T05:30:48;43.39;41.43;49.42;;
66589;Laerm;53447;49.272;11.070;2023-02-28T05:33:13;43.10;40.59;47.28;;
66589;Laerm;53447;49.272;11.070;2023-02-28T05:35:39;43.90;41.64;59.09;;
66589;Laerm;53447;49.272;11.070;2023-02-28T05:38:05;43.42;41.69;47.84;;
66589;Laerm;53447;49.272;11.070;2023-02-28T05:40:30;45.71;41.09;66.60;;
66589;Laerm;53447;49.272;11.070;2023-02-28T05:42:55;47.09;41.79;64.79;;
66589;Laerm;53447;49.272;11.070;2023-02-28T05:45:20;54.56;41.64;74.09;;
66589;Laerm;53447;49.272;11.070;2023-02-28T05:47:45;49.19;41.54;63.18;;
66589;Laerm;53447;49.272;11.070;2023-02-28T05:50:11;51.30;41.43;72.54;;
66589;Laerm;53447;49.272;11.070;2023-02-28T05:52:36;56.21;42.13;73.07;;
66589;Laerm;53447;49.272;11.070;2023-02-28T05:55:02;52.00;42.44;66.18;;
66589;Laerm;53447;49.272;11.070;2023-02-28T05:57:28;55.58;42.18;71.48;;
66589;Laerm;53447;49.272;11.070;2023-02-28T05:59:53;53.50;42.04;73.59;;
66589;Laerm;53447;49.272;11.070;2023-02-28T06:02:18;52.44;42.27;66.20;;
66589;Laerm;53447;49.272;11.070;2023-02-28T06:04:43;53.79;42.40;70.98;;
66589;Laerm;53447;49.272;11.070;2023-02-28T06:07:10;54.69;42.22;70.76;;
66589;Laerm;53447;49.272;11.070;2023-02-28T06:09:35;54.45;42.73;71.48;;
66589;Laerm;53447;49.272;11.070;2023-02-28T06:12:01;54.37;42.36;70.31;;
66589;Laerm;53447;49.272;11.070;2023-02-28T06:14:28;51.25;42.65;70.70;;
66589;Laerm;53447;49.272;11.070;2023-02-28T06:16:56;55.28;43.33;71.13;;
66589;Laerm;53447;49.272;11.070;2023-02-28T06:19:21;51.12;42.97;62.93;;
66589;Laerm;53447;49.272;11.070;2023-02-28T06:21:48;56.74;42.31;74.63;;
66589;Laerm;53447;49.272;11.070;2023-02-28T06:24:14;48.43;41.94;62.22;;
66589;Laerm;53447;49.272;11.070;2023-02-28T06:26:39;56.13;42.36;76.04;;
66589;Laerm;53447;49.272;11.070;2023-02-28T06:29:04;58.22;42.31;73.67;;
66589;Laerm;53447;49.272;11.070;2023-02-28T06:31:29;55.40;41.99;69.31;;
66589;Laerm;53447;49.272;11.070;2023-02-28T06:33:55;55.62;42.73;70.10;;
66589;Laerm;53447;49.272;11.070;2023-02-28T06:36:21;55.35;42.36;72.52;;
66589;Laerm;53447;49.272;11.070;2023-02-28T06:38:46;56.75;42.73;72.98;;
66589;Laerm;53447;49.272;11.070;2023-02-28T06:41:16;50.54;42.44;66.54;;
66589;Laerm;53447;49.272;11.070;2023-02-28T06:43:42;50.12;42.08;63.45;;
66589;Laerm;53447;49.272;11.070;2023-02-28T06:46:07;55.89;41.74;70.23;;
66589;Laerm;53447;49.272;11.070;2023-02-28T06:48:33;58.00;41.79;72.47;;
66589;Laerm;53447;49.272;11.070;2023-02-28T06:51:09;57.70;41.59;72.68;;
66589;Laerm;53447;49.272;11.070;2023-02-28T06:53:35;55.06;41.87;67.76;;
66589;Laerm;53447;49.272;11.070;2023-02-28T06:56:04;52.75;41.48;64.42;;
66589;Laerm;53447;49.272;11.070;2023-02-28T06:58:31;58.37;42.36;74.25;;
66589;Laerm;53447;49.272;11.070;2023-02-28T07:00:56;55.24;42.65;68.50;;
66589;Laerm;53447;49.272;11.070;2023-02-28T07:03:22;58.29;42.08;70.73;;
66589;Laerm;53447;49.272;11.070;2023-02-28T07:05:48;58.88;42.13;76.25;;
66589;Laerm;53447;49.272;11.070;2023-02-28T07:08:13;58.08;42.10;73.39;;
66589;Laerm;53447;49.272;11.070;2023-02-28T07:10:39;54.63;42.08;67.90;;
66589;Laerm;53447;49.272;11.070;2023-02-28T07:13:06;53.27;41.21;67.53;;
66589;Laerm;53447;49.272;11.070;2023-02-28T07:15:31;56.82;41.69;78.70;;
66589;Laerm;53447;49.272;11.070;2023-02-28T07:17:56;49.48;40.59;64.92;;
66589;Laerm;53447;49.272;11.070;2023-02-28T07:20:22;51.90;40.97;67.27;;
66589;Laerm;53447;49.272;11.070;2023-02-28T07:22:48;51.69;40.39;66.62;;
66589;Laerm;53447;49.272;11.070;2023-02-28T07:25:21;47.32;40.72;63.44;;
66589;Laerm;53447;49.272;11.070;2023-02-28T07:27:46;55.33;39.39;72.17;;
66589;Laerm;53447;49.272;11.070;2023-02-28T07:30:11;50.79;40.59;69.31;;
66589;Laerm;53447;49.272;11.070;2023-02-28T07:32:37;46.24;40.18;61.85;;
66589;Laerm;53447;49.272;11.070;2023-02-28T07:35:02;45.80;39.30;66.65;;
66589;Laerm;53447;49.272;11.070;2023-02-28T07:37:28;53.44;39.64;70.67;;
66589;Laerm;53447;49.272;11.070;2023-02-28T07:39:56;57.37;40.86;73.55;;
66589;Laerm;53447;49.272;11.070;2023-02-28T07:42:21;55.40;40.79;70.34;;
66589;Laerm;53447;49.272;11.070;2023-02-28T07:44:46;55.66;41.21;69.53;;
66589;Laerm;53447;49.272;11.070;2023-02-28T07:47:12;57.41;40.03;75.03;;
66589;Laerm;53447;49.272;11.070;2023-02-28T07:49:37;52.42;40.85;63.84;;
66589;Laerm;53447;49.272;11.070;2023-02-28T07:52:06;55.80;40.85;73.77;;
66589;Laerm;53447;49.272;11.070;2023-02-28T07:54:32;55.75;40.53;74.16;;
66589;Laerm;53447;49.272;11.070;2023-02-28T07:56:57;56.90;40.46;74.28;;
66589;Laerm;53447;49.272;11.070;2023-02-28T07:59:23;53.51;40.18;73.39;;
66589;Laerm;53447;49.272;11.070;2023-02-28T08:01:49;55.01;40.25;71.32;;
66589;Laerm;53447;49.272;11.070;2023-02-28T08:04:15;52.20;40.46;70.13;;
66589;Laerm;53447;49.272;11.070;2023-02-28T08:06:41;48.89;40.79;65.11;;
66589;Laerm;53447;49.272;11.070;2023-02-28T08:09:06;47.99;40.03;66.14;;
66589;Laerm;53447;49.272;11.070;2023-02-28T08:11:31;54.18;36.71;71.45;;
66589;Laerm;53447;49.272;11.070;2023-02-28T08:13:57;53.71;39.03;72.75;;
66589;Laerm;53447;49.272;11.070;2023-02-28T08:16:22;51.95;39.03;66.68;;
66589;Laerm;53447;49.272;11.070;2023-02-28T08:18:48;46.27;37.84;65.64;;
66589;Laerm;53447;49.272;11.070;2023-02-28T08:21:14;53.98;40.39;73.16;;
66589;Laerm;53447;49.272;11.070;2023-02-28T08:23:39;45.45;38.53;67.28;;
66589;Laerm;53447;49.272;11.070;2023-02-28T08:26:04;52.70;39.88;72.27;;
66589;Laerm;53447;49.272;11.070;2023-02-28T08:28:30;51.12;39.56;64.51;;
66589;Laerm;53447;49.272;11.070;2023-02-28T08:30:56;49.24;38.93;65.84;;
66589;Laerm;53447;49.272;11.070;2023-02-28T08:33:21;48.36;39.88;64.60;;
66589;Laerm;53447;49.272;11.070;2023-02-28T08:35:47;45.93;41.08;65.53;;
66589;Laerm;53447;49.272;11.070;2023-02-28T08:38:13;53.66;39.72;73.74;;
66589;Laerm;53447;49.272;11.070;2023-02-28T08:40:38;43.83;39.56;56.58;;
66589;Laerm;53447;49.272;11.070;2023-02-28T08:43:03;46.46;39.03;67.06;;
66589;Laerm;53447;49.272;11.070;2023-02-28T08:45:28;45.98;40.66;56.61;;
66589;Laerm;53447;49.272;11.070;2023-02-28T08:47:54;47.49;41.03;62.16;;
66589;Laerm;53447;49.272;11.070;2023-02-28T08:50:21;46.44;38.83;60.11;;
66589;Laerm;53447;49.272;11.070;2023-02-28T08:52:46;45.42;39.12;64.24;;
66589;Laerm;53447;49.272;11.070;2023-02-28T08:55:11;48.33;40.72;68.97;;
66589;Laerm;53447;49.272;11.070;2023-02-28T08:57:37;46.12;39.96;62.90;;
66589;Laerm;53447;49.272;11.070;2023-02-28T09:00:03;44.98;39.48;62.03;;
66589;Laerm;53447;49.272;11.070;2023-02-28T09:02:31;46.04;39.56;62.38;;
66589;Laerm;53447;49.272;11.070;2023-02-28T09:04:57;43.75;39.48;54.23;;
66589;Laerm;53447;49.272;11.070;2023-02-28T09:07:23;47.40;39.48;66.36;;
66589;Laerm;53447;49.272;11.070;2023-02-28T09:09:50;47.03;39.03;60.20;;
66589;Laerm;53447;49.272;11.070;2023-02-28T09:12:27;53.13;39.30;72.66;;
66589;Laerm;53447;49.272;11.070;2023-02-28T09:14:56;48.16;40.59;63.58;;
66589;Laerm;53447;49.272;11.070;2023-02-28T09:17:21;54.37;37.45;73.20;;
66589;Laerm;53447;49.272;11.070;2023-02-28T09:19:47;46.95;40.03;59.28;;
66589;Laerm;53447;49.272;11.070;2023-02-28T09:22:13;54.10;41.94;73.00;;
66589;Laerm;53447;49.272;11.070;2023-02-28T09:24:38;46.17;40.05;60.90;;
66589;Laerm;53447;49.272;11.070;2023-02-28T09:27:04;47.79;40.25;64.04;;
66589;Laerm;53447;49.272;11.070;2023-02-28T09:29:30;43.60;38.42;60.39;;
66589;Laerm;53447;49.272;11.070;2023-02-28T09:31:55;50.44;40.03;64.98;;
66589;Laerm;53447;49.272;11.070;2023-02-28T09:34:25;46.49;39.88;64.37;;
66589;Laerm;53447;49.272;11.070;2023-02-28T09:36:50;51.87;38.42;71.94;;
66589;Laerm;53447;49.272;11.070;2023-02-28T09:39:20;43.31;39.03;58.70;;
66589;Laerm;53447;49.272;11.070;2023-02-28T09:41:47;43.06;37.58;56.39;;
66589;Laerm;53447;49.272;11.070;2023-02-28T09:44:57;45.96;37.96;61.81;;
66589;Laerm;53447;49.272;11.070;2023-02-28T09:47:14;46.01;38.73;61.03;;
66589;Laerm;53447;49.272;11.070;2023-02-28T09:49:42;50.33;39.64;64.46;;
66589;Laerm;53447;49.272;11.070;2023-02-28T09:52:13;48.01;39.30;62.59;;
66589;Laerm;53447;49.272;11.070;2023-02-28T09:54:41;47.48;39.72;62.33;;
66589;Laerm;53447;49.272;11.070;2023-02-28T09:59:53;48.60;39.30;65.68;;
66589;Laerm;53447;49.272;11.070;2023-02-28T10:04:56;47.59;38.73;63.73;;
66589;Laerm;53447;49.272;11.070;2023-02-28T10:10:05;52.69;38.31;71.41;;
66589;Laerm;53447;49.272;11.070;2023-02-28T10:12:33;49.15;39.48;64.22;;
66589;Laerm;53447;49.272;11.070;2023-02-28T10:15:02;54.72;39.48;75.18;;
66589;Laerm;53447;49.272;11.070;2023-02-28T10:17:32;54.03;39.39;72.35;;
66589;Laerm;53447;49.272;11.070;2023-02-28T10:20:05;50.34;38.73;74.39;;
66589;Laerm;53447;49.272;11.070;2023-02-28T10:25:32;43.81;39.03;56.03;;
66589;Laerm;53447;49.272;11.070;2023-02-28T10:28:12;45.38;39.03;64.54;;
66589;Laerm;53447;49.272;11.070;2023-02-28T10:30:59;55.34;36.20;75.18;;
66589;Laerm;53447;49.272;11.070;2023-02-28T10:33:31;46.72;39.03;60.23;;
66589;Laerm;53447;49.272;11.070;2023-02-28T10:35:57;45.55;39.21;60.76;;
66589;Laerm;53447;49.272;11.070;2023-02-28T10:38:24;50.13;37.84;65.61;;
66589;Laerm;53447;49.272;11.070;2023-02-28T10:40:50;43.74;36.87;60.41;;
66589;Laerm;53447;49.272;11.070;2023-02-28T10:45:55;48.25;40.18;63.39;;
66589;Laerm;53447;49.272;11.070;2023-02-28T10:58:23;47.44;38.20;62.83;;
66589;Laerm;53447;49.272;11.070;2023-02-28T11:00:50;51.04;38.63;65.53;;
66589;Laerm;53447;49.272;11.070;2023-02-28T11:03:32;48.64;39.30;65.78;;
66589;Laerm;53447;49.272;11.070;2023-02-28T11:05:58;46.05;39.72;64.85;;
66589;Laerm;53447;49.272;11.070;2023-02-28T11:08:29;50.02;39.21;66.08;;
66589;Laerm;53447;49.272;11.070;2023-02-28T11:10:55;44.73;38.93;61.08;;
66589;Laerm;53447;49.272;11.070;2023-02-28T11:13:25;49.91;38.42;66.73;;
66589;Laerm;53447;49.272;11.070;2023-02-28T11:15:53;44.83;36.55;60.70;;
66589;Laerm;53447;49.272;11.070;2023-02-28T11:18:38;45.60;38.95;61.17;;
66589;Laerm;53447;49.272;11.070;2023-02-28T11:21:05;47.80;38.73;64.50;;
66589;Laerm;53447;49.272;11.070;2023-02-28T11:23:32;52.81;40.25;73.26;;
66589;Laerm;53447;49.272;11.070;2023-02-28T11:25:59;44.35;37.45;60.49;;
66589;Laerm;53447;49.272;11.070;2023-02-28T11:33:28;52.20;39.12;71.30;;
66589;Laerm;53447;49.272;11.070;2023-02-28T11:36:00;55.71;40.03;72.21;;
66589;Laerm;53447;49.272;11.070;2023-02-28T11:38:26;49.81;39.21;68.47;;
66589;Laerm;53447;49.272;11.070;2023-02-28T11:43:23;42.86;38.20;56.02;;
66589;Laerm;53447;49.272;11.070;2023-02-28T11:48:43;44.82;38.42;61.28;;
66589;Laerm;53447;49.272;11.070;2023-02-28T11:51:31;51.13;38.93;67.93;;
66589;Laerm;53447;49.272;11.070;2023-02-28T11:56:42;50.46;37.84;68.38;;
66589;Laerm;53447;49.272;11.070;2023-02-28T12:04:28;46.73;37.84;64.73;;
66589;Laerm;53447;49.272;11.070;2023-02-28T12:06:59;48.92;37.45;66.69;;
66589;Laerm;53447;49.272;11.070;2023-02-28T12:11:57;56.66;37.96;72.38;;
66589;Laerm;53447;49.272;11.070;2023-02-28T12:16:53;45.99;40.66;62.11;;
66589;Laerm;53447;49.272;11.070;2023-02-28T12:19:30;42.61;39.30;56.11;;
66589;Laerm;53447;49.272;11.070;2023-02-28T12:26:53;48.57;39.21;64.06;;
66589;Laerm;53447;49.272;11.070;2023-02-28T12:29:28;52.94;37.96;71.17;;
66589;Laerm;53447;49.272;11.070;2023-02-28T12:32:05;58.66;39.64;77.89;;
66589;Laerm;53447;49.272;11.070;2023-02-28T12:34:32;48.87;39.56;65.84;;
66589;Laerm;53447;49.272;11.070;2023-02-28T12:36:58;53.36;39.12;70.57;;
66589;Laerm;53447;49.272;11.070;2023-02-28T12:39:26;48.64;39.39;61.29;;
66589;Laerm;53447;49.272;11.070;2023-02-28T12:41:55;48.92;40.79;60.12;;
66589;Laerm;53447;49.272;11.070;2023-02-28T12:44:30;49.51;40.11;63.91;;
66589;Laerm;53447;49.272;11.070;2023-02-28T12:46:57;48.62;36.87;64.06;;
66589;Laerm;53447;49.272;11.070;2023-02-28T12:49:29;46.30;39.72;60.75;;
66589;Laerm;53447;49.272;11.070;2023-02-28T12:51:57;44.44;38.73;54.76;;
66589;Laerm;53447;49.272;11.070;2023-02-28T13:07:34;42.61;39.12;59.92;;
66589;Laerm;53447;49.272;11.070;2023-02-28T13:10:04;45.57;37.84;66.25;;
66589;Laerm;53447;49.272;11.070;2023-02-28T13:12:32;54.24;38.73;72.42;;
66589;Laerm;53447;49.272;11.070;2023-02-28T13:17:56;55.17;39.21;73.76;;
66589;Laerm;53447;49.272;11.070;2023-02-28T13:20:27;43.77;39.56;62.02;;
66589;Laerm;53447;49.272;11.070;2023-02-28T13:22:55;61.22;39.56;87.21;;
66589;Laerm;53447;49.272;11.070;2023-02-28T13:27:47;50.59;39.56;67.56;;
66589;Laerm;53447;49.272;11.070;2023-02-28T13:33:42;50.36;37.58;68.71;;
66589;Laerm;53447;49.272;11.070;2023-02-28T13:35:50;51.65;39.29;71.78;;
66589;Laerm;53447;49.272;11.070;2023-02-28T13:38:32;50.19;39.21;69.50;;
66589;Laerm;53447;49.272;11.070;2023-02-28T13:41:25;47.09;39.39;64.66;;
66589;Laerm;53447;49.272;11.070;2023-02-28T13:46:24;52.40;37.17;69.77;;
66589;Laerm;53447;49.272;11.070;2023-02-28T13:48:49;52.57;38.73;71.57;;
66589;Laerm;53447;49.272;11.070;2023-02-28T13:54:06;53.27;39.12;68.03;;
66589;Laerm;53447;49.272;11.070;2023-02-28T13:57:03;54.99;39.64;79.52;;
66589;Laerm;53447;49.272;11.070;2023-02-28T13:59:26;54.02;38.93;71.66;;
66589;Laerm;53447;49.272;11.070;2023-02-28T14:06:51;54.78;38.63;72.88;;
66589;Laerm;53447;49.272;11.070;2023-02-28T14:12:27;44.54;38.83;57.25;;
66589;Laerm;53447;49.272;11.070;2023-02-28T14:17:12;54.16;39.64;73.93;;
66589;Laerm;53447;49.272;11.070;2023-02-28T14:19:39;56.74;39.48;76.19;;
66589;Laerm;53447;49.272;11.070;2023-02-28T14:34:51;52.04;40.63;70.44;;
66589;Laerm;53447;49.272;11.070;2023-02-28T14:37:39;44.22;39.80;60.31;;
66589;Laerm;53447;49.272;11.070;2023-02-28T14:40:04;43.94;39.30;61.43;;
66589;Laerm;53447;49.272;11.070;2023-02-28T14:42:31;43.38;39.13;57.43;;
66589;Laerm;53447;49.272;11.070;2023-02-28T14:44:57;43.00;38.07;55.99;;
66589;Laerm;53447;49.272;11.070;2023-02-28T14:47:23;51.42;38.63;71.03;;
66589;Laerm;53447;49.272;11.070;2023-02-28T14:49:50;48.93;38.53;70.23;;
66589;Laerm;53447;49.272;11.070;2023-02-28T14:54:42;43.28;39.12;52.87;;
66589;Laerm;53447;49.272;11.070;2023-02-28T14:57:25;47.82;40.46;62.57;;
66589;Laerm;53447;49.272;11.070;2023-02-28T15:00:25;43.89;40.97;55.50;;
66589;Laerm;53447;49.272;11.070;2023-02-28T15:02:42;47.04;40.72;57.82;;
66589;Laerm;53447;49.272;11.070;2023-02-28T15:07:46;44.13;39.48;58.46;;
66589;Laerm;53447;49.272;11.070;2023-02-28T15:10:18;51.03;38.73;71.00;;
66589;Laerm;53447;49.272;11.070;2023-02-28T15:12:49;50.11;38.83;67.20;;
66589;Laerm;53447;49.272;11.070;2023-02-28T15:15:16;42.37;38.93;51.57;;
66589;Laerm;53447;49.272;11.070;2023-02-28T15:17:42;50.94;38.93;69.20;;
66589;Laerm;53447;49.272;11.070;2023-02-28T15:20:11;43.28;39.12;53.97;;
66589;Laerm;53447;49.272;11.070;2023-02-28T15:22:37;43.81;39.30;56.12;;
66589;Laerm;53447;49.272;11.070;2023-02-28T15:25:03;52.88;39.80;72.76;;
66589;Laerm;53447;49.272;11.070;2023-02-28T15:27:31;48.96;40.32;67.45;;
66589;Laerm;53447;49.272;11.070;2023-02-28T15:30:00;43.61;37.84;57.06;;
66589;Laerm;53447;49.272;11.070;2023-02-28T15:34:55;48.25;39.39;64.32;;
66589;Laerm;53447;49.272;11.070;2023-02-28T15:39:56;46.94;39.03;63.75;;
66589;Laerm;53447;49.272;11.070;2023-02-28T15:42:22;45.67;38.83;61.87;;
66589;Laerm;53447;49.272;11.070;2023-02-28T15:44:48;48.38;40.25;62.45;;
66589;Laerm;53447;49.272;11.070;2023-02-28T15:47:21;49.52;38.93;64.90;;
66589;Laerm;53447;49.272;11.070;2023-02-28T15:49:54;61.62;41.79;78.24;;
66589;Laerm;53447;49.272;11.070;2023-02-28T15:55:07;55.00;40.53;73.13;;
66589;Laerm;53447;49.272;11.070;2023-02-28T15:57:33;49.67;39.88;65.05;;
66589;Laerm;53447;49.272;11.070;2023-02-28T16:00:00;52.30;40.03;66.87;;
66589;Laerm;53447;49.272;11.070;2023-02-28T16:02:31;56.75;41.32;73.37;;
66589;Laerm;53447;49.272;11.070;2023-02-28T16:04:58;56.65;40.03;69.51;;
66589;Laerm;53447;49.272;11.070;2023-02-28T16:07:23;50.61;40.46;63.47;;
66589;Laerm;53447;49.272;11.070;2023-02-28T16:09:49;50.35;40.59;61.68;;
66589;Laerm;53447;49.272;11.070;2023-02-28T16:12:14;49.70;40.59;62.99;;
66589;Laerm;53447;49.272;11.070;2023-02-28T16:14:40;49.37;40.72;60.37;;
66589;Laerm;53447;49.272;11.070;2023-02-28T16:17:06;50.22;40.46;62.97;;
66589;Laerm;53447;49.272;11.070;2023-02-28T16:19:33;49.66;41.59;62.94;;